sensor_id;sensor_type;location;lat;lon;timestamp;P1;durP1;ratioP1;P2;durP2;ratioP2
33672;SDS011;20011;51.510;9.942;2022-12-29T00:00:10;4.88;;;1.90;;
33672;SDS011;20011;51.510;9.942;2022-12-29T00:02:40;2.58;;;1.42;;
33672;SDS011;20011;51.510;9.942;2022-12-29T00:05:08;2.22;;;1.40;;
33672;SDS011;20011;51.510;9.942;2022-12-29T00:07:35;3.42;;;1.23;;
33672;SDS011;20011;51.510;9.942;2022-12-29T00:10:02;2.47;;;1.42;;
33672;SDS011;20011;51.510;9.942;2022-12-29T00:12:30;4.03;;;1.67;;
33672;SDS011;20011;51.510;9.942;2022-12-29T00:15:17;2.45;;;1.38;;
33672;SDS011;20011;51.510;9.942;2022-12-29T00:18:03;6.63;;;1.63;;
33672;SDS011;20011;51.510;9.942;2022-12-29T00:20:32;2.40;;;1.23;;
33672;SDS011;20011;51.510;9.942;2022-12-29T00:23:19;1.63;;;1.40;;
33672;SDS011;20011;51.510;9.942;2022-12-29T00:26:25;3.08;;;1.40;;
33672;SDS011;20011;51.510;9.942;2022-12-29T00:29:11;2.13;;;1.13;;
33672;SDS011;20011;51.510;9.942;2022-12-29T00:31:56;1.70;;;1.40;;
33672;SDS011;20011;51.510;9.942;2022-12-29T00:34:43;1.90;;;1.27;;
33672;SDS011;20011;51.510;9.942;2022-12-29T00:37:28;3.33;;;1.70;;
33672;SDS011;20011;51.510;9.942;2022-12-29T00:40:14;3.13;;;1.40;;
33672;SDS011;20011;51.510;9.942;2022-12-29T00:42:59;2.33;;;1.23;;
33672;SDS011;20011;51.510;9.942;2022-12-29T00:45:45;1.35;;;1.20;;
33672;SDS011;20011;51.510;9.942;2022-12-29T00:48:12;2.00;;;1.45;;
33672;SDS011;20011;51.510;9.942;2022-12-29T00:50:39;5.40;;;1.50;;
33672;SDS011;20011;51.510;9.942;2022-12-29T00:55:37;2.70;;;1.10;;
33672;SDS011;20011;51.510;9.942;2022-12-29T00:58:06;2.38;;;1.23;;
33672;SDS011;20011;51.510;9.942;2022-12-29T01:00:34;1.58;;;0.93;;
33672;SDS011;20011;51.510;9.942;2022-12-29T01:03:01;4.25;;;1.70;;
33672;SDS011;20011;51.510;9.942;2022-12-29T01:05:29;5.60;;;1.70;;
33672;SDS011;20011;51.510;9.942;2022-12-29T01:07:56;3.88;;;1.50;;
33672;SDS011;20011;51.510;9.942;2022-12-29T01:10:23;1.73;;;1.30;;
33672;SDS011;20011;51.510;9.942;2022-12-29T01:12:54;1.90;;;1.70;;
33672;SDS011;20011;51.510;9.942;2022-12-29T01:15:21;2.38;;;1.60;;
33672;SDS011;20011;51.510;9.942;2022-12-29T01:17:49;3.67;;;1.30;;
33672;SDS011;20011;51.510;9.942;2022-12-29T01:20:16;6.93;;;1.48;;
33672;SDS011;20011;51.510;9.942;2022-12-29T01:22:43;2.83;;;1.35;;
33672;SDS011;20011;51.510;9.942;2022-12-29T01:25:11;6.28;;;1.23;;
33672;SDS011;20011;51.510;9.942;2022-12-29T01:27:38;2.50;;;1.65;;
33672;SDS011;20011;51.510;9.942;2022-12-29T01:30:05;7.50;;;1.70;;
33672;SDS011;20011;51.510;9.942;2022-12-29T01:32:33;4.35;;;1.75;;
33672;SDS011;20011;51.510;9.942;2022-12-29T01:35:00;5.97;;;2.17;;
33672;SDS011;20011;51.510;9.942;2022-12-29T01:37:27;3.22;;;1.75;;
33672;SDS011;20011;51.510;9.942;2022-12-29T01:39:55;2.17;;;1.60;;
33672;SDS011;20011;51.510;9.942;2022-12-29T01:42:23;1.60;;;1.50;;
33672;SDS011;20011;51.510;9.942;2022-12-29T01:44:54;1.58;;;1.40;;
33672;SDS011;20011;51.510;9.942;2022-12-29T01:47:38;2.05;;;1.27;;
33672;SDS011;20011;51.510;9.942;2022-12-29T01:50:30;4.55;;;1.38;;
33672;SDS011;20011;51.510;9.942;2022-12-29T01:55:27;3.75;;;1.73;;
33672;SDS011;20011;51.510;9.942;2022-12-29T01:57:58;3.42;;;1.70;;
33672;SDS011;20011;51.510;9.942;2022-12-29T02:00:29;3.42;;;1.73;;
33672;SDS011;20011;51.510;9.942;2022-12-29T02:02:57;4.30;;;1.42;;
33672;SDS011;20011;51.510;9.942;2022-12-29T02:05:27;3.80;;;1.30;;
33672;SDS011;20011;51.510;9.942;2022-12-29T02:08:00;1.13;;;1.02;;
33672;SDS011;20011;51.510;9.942;2022-12-29T02:10:29;1.35;;;1.10;;
33672;SDS011;20011;51.510;9.942;2022-12-29T02:12:59;1.50;;;1.23;;
33672;SDS011;20011;51.510;9.942;2022-12-29T02:15:35;4.50;;;1.70;;
33672;SDS011;20011;51.510;9.942;2022-12-29T02:18:36;2.08;;;1.17;;
33672;SDS011;20011;51.510;9.942;2022-12-29T02:21:41;0.93;;;0.90;;
33672;SDS011;20011;51.510;9.942;2022-12-29T02:24:46;1.80;;;1.20;;
33672;SDS011;20011;51.510;9.942;2022-12-29T02:33:10;1.85;;;1.40;;
33672;SDS011;20011;51.510;9.942;2022-12-29T02:40:53;2.60;;;1.40;;
33672;SDS011;20011;51.510;9.942;2022-12-29T02:46:12;1.55;;;1.00;;
33672;SDS011;20011;51.510;9.942;2022-12-29T02:48:51;2.30;;;1.27;;
33672;SDS011;20011;51.510;9.942;2022-12-29T02:54:13;2.88;;;1.02;;
33672;SDS011;20011;51.510;9.942;2022-12-29T02:57:15;1.58;;;1.13;;
33672;SDS011;20011;51.510;9.942;2022-12-29T02:59:53;1.05;;;0.95;;
33672;SDS011;20011;51.510;9.942;2022-12-29T03:07:43;2.35;;;1.30;;
33672;SDS011;20011;51.510;9.942;2022-12-29T03:16:21;2.80;;;1.10;;
33672;SDS011;20011;51.510;9.942;2022-12-29T03:24:47;2.78;;;0.90;;
33672;SDS011;20011;51.510;9.942;2022-12-29T03:27:20;1.73;;;0.90;;
33672;SDS011;20011;51.510;9.942;2022-12-29T03:29:53;3.03;;;1.27;;
33672;SDS011;20011;51.510;9.942;2022-12-29T03:32:24;1.52;;;1.10;;
33672;SDS011;20011;51.510;9.942;2022-12-29T03:34:55;2.63;;;1.02;;
33672;SDS011;20011;51.510;9.942;2022-12-29T03:37:25;1.60;;;1.40;;
33672;SDS011;20011;51.510;9.942;2022-12-29T03:39:57;4.47;;;1.50;;
33672;SDS011;20011;51.510;9.942;2022-12-29T03:42:25;4.78;;;1.10;;
33672;SDS011;20011;51.510;9.942;2022-12-29T03:44:57;4.35;;;1.05;;
33672;SDS011;20011;51.510;9.942;2022-12-29T03:47:24;0.82;;;0.73;;
33672;SDS011;20011;51.510;9.942;2022-12-29T03:49:53;3.33;;;1.20;;
33672;SDS011;20011;51.510;9.942;2022-12-29T03:52:20;1.52;;;1.00;;
33672;SDS011;20011;51.510;9.942;2022-12-29T03:54:49;5.22;;;0.88;;
33672;SDS011;20011;51.510;9.942;2022-12-29T03:57:17;8.48;;;1.25;;
33672;SDS011;20011;51.510;9.942;2022-12-29T03:59:58;2.20;;;1.00;;
33672;SDS011;20011;51.510;9.942;2022-12-29T04:04:56;0.93;;;0.80;;
33672;SDS011;20011;51.510;9.942;2022-12-29T04:07:23;1.42;;;0.90;;
33672;SDS011;20011;51.510;9.942;2022-12-29T04:09:52;3.38;;;0.77;;
33672;SDS011;20011;51.510;9.942;2022-12-29T04:14:49;2.80;;;1.00;;
33672;SDS011;20011;51.510;9.942;2022-12-29T04:17:17;0.80;;;0.80;;
33672;SDS011;20011;51.510;9.942;2022-12-29T04:19:48;0.88;;;0.70;;
33672;SDS011;20011;51.510;9.942;2022-12-29T04:22:15;0.80;;;0.80;;
33672;SDS011;20011;51.510;9.942;2022-12-29T04:24:44;1.98;;;0.98;;
33672;SDS011;20011;51.510;9.942;2022-12-29T04:27:11;0.88;;;0.88;;
33672;SDS011;20011;51.510;9.942;2022-12-29T04:29:58;2.35;;;0.90;;
33672;SDS011;20011;51.510;9.942;2022-12-29T04:32:40;1.05;;;0.68;;
33672;SDS011;20011;51.510;9.942;2022-12-29T04:35:08;1.30;;;1.02;;
33672;SDS011;20011;51.510;9.942;2022-12-29T04:37:35;0.93;;;0.88;;
33672;SDS011;20011;51.510;9.942;2022-12-29T04:40:02;0.70;;;0.70;;
33672;SDS011;20011;51.510;9.942;2022-12-29T04:42:30;0.77;;;0.77;;
33672;SDS011;20011;51.510;9.942;2022-12-29T04:44:58;1.75;;;1.00;;
33672;SDS011;20011;51.510;9.942;2022-12-29T04:47:54;1.60;;;0.68;;
33672;SDS011;20011;51.510;9.942;2022-12-29T04:50:36;2.33;;;0.90;;
33672;SDS011;20011;51.510;9.942;2022-12-29T04:53:13;1.30;;;0.75;;
33672;SDS011;20011;51.510;9.942;2022-12-29T04:55:41;0.90;;;0.70;;
33672;SDS011;20011;51.510;9.942;2022-12-29T04:58:09;4.05;;;1.00;;
33672;SDS011;20011;51.510;9.942;2022-12-29T05:00:36;1.05;;;0.95;;
33672;SDS011;20011;51.510;9.942;2022-12-29T05:03:04;0.85;;;0.80;;
33672;SDS011;20011;51.510;9.942;2022-12-29T05:05:32;3.90;;;0.70;;
33672;SDS011;20011;51.510;9.942;2022-12-29T05:08:00;0.77;;;0.77;;
33672;SDS011;20011;51.510;9.942;2022-12-29T05:10:27;1.13;;;0.90;;
33672;SDS011;20011;51.510;9.942;2022-12-29T05:13:00;0.73;;;0.73;;
33672;SDS011;20011;51.510;9.942;2022-12-29T05:15:27;1.13;;;0.88;;
33672;SDS011;20011;51.510;9.942;2022-12-29T05:17:56;1.08;;;0.63;;
33672;SDS011;20011;51.510;9.942;2022-12-29T05:20:23;1.98;;;0.70;;
33672;SDS011;20011;51.510;9.942;2022-12-29T05:22:51;1.77;;;0.80;;
33672;SDS011;20011;51.510;9.942;2022-12-29T05:25:18;0.70;;;0.68;;
33672;SDS011;20011;51.510;9.942;2022-12-29T05:27:56;0.57;;;0.57;;
33672;SDS011;20011;51.510;9.942;2022-12-29T05:30:40;1.05;;;0.95;;
33672;SDS011;20011;51.510;9.942;2022-12-29T05:33:09;3.35;;;0.40;;
33672;SDS011;20011;51.510;9.942;2022-12-29T05:35:39;1.38;;;0.55;;
33672;SDS011;20011;51.510;9.942;2022-12-29T05:38:12;1.35;;;1.00;;
33672;SDS011;20011;51.510;9.942;2022-12-29T05:40:41;5.15;;;1.00;;
33672;SDS011;20011;51.510;9.942;2022-12-29T05:43:22;1.13;;;0.60;;
33672;SDS011;20011;51.510;9.942;2022-12-29T05:46:10;0.85;;;0.50;;
33672;SDS011;20011;51.510;9.942;2022-12-29T05:48:54;1.40;;;0.85;;
33672;SDS011;20011;51.510;9.942;2022-12-29T05:51:33;0.80;;;0.60;;
33672;SDS011;20011;51.510;9.942;2022-12-29T05:54:01;1.85;;;0.63;;
33672;SDS011;20011;51.510;9.942;2022-12-29T05:56:28;0.73;;;0.70;;
33672;SDS011;20011;51.510;9.942;2022-12-29T05:58:57;2.08;;;0.70;;
33672;SDS011;20011;51.510;9.942;2022-12-29T06:01:25;1.58;;;0.93;;
33672;SDS011;20011;51.510;9.942;2022-12-29T06:03:53;1.65;;;0.60;;
33672;SDS011;20011;51.510;9.942;2022-12-29T06:06:20;1.63;;;0.73;;
33672;SDS011;20011;51.510;9.942;2022-12-29T06:08:48;6.78;;;1.65;;
33672;SDS011;20011;51.510;9.942;2022-12-29T06:11:16;2.80;;;0.85;;
33672;SDS011;20011;51.510;9.942;2022-12-29T06:13:49;2.10;;;0.50;;
33672;SDS011;20011;51.510;9.942;2022-12-29T06:16:16;0.88;;;0.70;;
33672;SDS011;20011;51.510;9.942;2022-12-29T06:18:44;1.52;;;0.70;;
33672;SDS011;20011;51.510;9.942;2022-12-29T06:21:11;1.07;;;0.60;;
33672;SDS011;20011;51.510;9.942;2022-12-29T06:23:39;3.88;;;0.95;;
33672;SDS011;20011;51.510;9.942;2022-12-29T06:26:06;4.10;;;1.10;;
33672;SDS011;20011;51.510;9.942;2022-12-29T06:28:34;1.48;;;1.10;;
33672;SDS011;20011;51.510;9.942;2022-12-29T06:31:01;3.20;;;0.70;;
33672;SDS011;20011;51.510;9.942;2022-12-29T06:33:29;2.20;;;0.80;;
33672;SDS011;20011;51.510;9.942;2022-12-29T06:35:57;0.60;;;0.50;;
33672;SDS011;20011;51.510;9.942;2022-12-29T06:38:24;1.17;;;0.70;;
33672;SDS011;20011;51.510;9.942;2022-12-29T06:40:52;1.95;;;0.70;;
33672;SDS011;20011;51.510;9.942;2022-12-29T06:43:39;2.88;;;0.77;;
33672;SDS011;20011;51.510;9.942;2022-12-29T06:46:14;4.47;;;0.88;;
33672;SDS011;20011;51.510;9.942;2022-12-29T06:48:42;2.22;;;0.70;;
33672;SDS011;20011;51.510;9.942;2022-12-29T06:51:09;1.70;;;0.93;;
33672;SDS011;20011;51.510;9.942;2022-12-29T06:53:36;0.70;;;0.70;;
33672;SDS011;20011;51.510;9.942;2022-12-29T06:56:04;1.20;;;0.90;;
33672;SDS011;20011;51.510;9.942;2022-12-29T06:58:31;3.30;;;1.40;;
33672;SDS011;20011;51.510;9.942;2022-12-29T07:00:59;1.38;;;0.85;;
33672;SDS011;20011;51.510;9.942;2022-12-29T07:03:26;1.35;;;0.85;;
33672;SDS011;20011;51.510;9.942;2022-12-29T07:05:53;3.22;;;0.98;;
33672;SDS011;20011;51.510;9.942;2022-12-29T07:08:21;1.50;;;0.95;;
33672;SDS011;20011;51.510;9.942;2022-12-29T07:10:48;3.80;;;0.80;;
33672;SDS011;20011;51.510;9.942;2022-12-29T07:13:15;6.07;;;1.17;;
33672;SDS011;20011;51.510;9.942;2022-12-29T07:15:43;6.60;;;0.95;;
33672;SDS011;20011;51.510;9.942;2022-12-29T07:18:10;2.20;;;0.90;;
33672;SDS011;20011;51.510;9.942;2022-12-29T07:20:37;14.13;;;1.20;;
33672;SDS011;20011;51.510;9.942;2022-12-29T07:23:05;1.17;;;0.90;;
33672;SDS011;20011;51.510;9.942;2022-12-29T07:25:32;3.13;;;0.85;;
33672;SDS011;20011;51.510;9.942;2022-12-29T07:28:02;1.27;;;0.70;;
33672;SDS011;20011;51.510;9.942;2022-12-29T07:30:29;2.25;;;0.80;;
33672;SDS011;20011;51.510;9.942;2022-12-29T07:32:56;2.03;;;0.98;;
33672;SDS011;20011;51.510;9.942;2022-12-29T07:35:24;2.17;;;1.30;;
33672;SDS011;20011;51.510;9.942;2022-12-29T07:37:51;1.73;;;1.33;;
33672;SDS011;20011;51.510;9.942;2022-12-29T07:40:18;2.70;;;1.00;;
33672;SDS011;20011;51.510;9.942;2022-12-29T07:42:46;2.15;;;1.33;;
33672;SDS011;20011;51.510;9.942;2022-12-29T07:45:15;1.23;;;0.93;;
33672;SDS011;20011;51.510;9.942;2022-12-29T07:48:01;2.72;;;0.98;;
33672;SDS011;20011;51.510;9.942;2022-12-29T07:50:29;1.67;;;1.05;;
33672;SDS011;20011;51.510;9.942;2022-12-29T07:52:56;4.95;;;1.02;;
33672;SDS011;20011;51.510;9.942;2022-12-29T07:55:23;1.83;;;1.05;;
33672;SDS011;20011;51.510;9.942;2022-12-29T07:57:55;5.20;;;0.93;;
33672;SDS011;20011;51.510;9.942;2022-12-29T08:00:22;2.25;;;1.10;;
33672;SDS011;20011;51.510;9.942;2022-12-29T08:02:50;3.85;;;1.10;;
33672;SDS011;20011;51.510;9.942;2022-12-29T08:05:17;2.42;;;1.00;;
33672;SDS011;20011;51.510;9.942;2022-12-29T08:07:45;9.35;;;1.60;;
33672;SDS011;20011;51.510;9.942;2022-12-29T08:10:13;2.47;;;1.42;;
33672;SDS011;20011;51.510;9.942;2022-12-29T08:12:43;1.23;;;1.10;;
33672;SDS011;20011;51.510;9.942;2022-12-29T08:15:11;2.70;;;1.20;;
33672;SDS011;20011;51.510;9.942;2022-12-29T08:17:38;2.75;;;1.13;;
33672;SDS011;20011;51.510;9.942;2022-12-29T08:20:06;3.85;;;1.25;;
33672;SDS011;20011;51.510;9.942;2022-12-29T08:22:33;1.88;;;1.10;;
33672;SDS011;20011;51.510;9.942;2022-12-29T08:25:01;4.30;;;0.88;;
33672;SDS011;20011;51.510;9.942;2022-12-29T08:27:28;2.45;;;0.90;;
33672;SDS011;20011;51.510;9.942;2022-12-29T08:29:55;3.00;;;0.93;;
33672;SDS011;20011;51.510;9.942;2022-12-29T08:32:23;2.45;;;1.10;;
33672;SDS011;20011;51.510;9.942;2022-12-29T08:34:50;1.92;;;1.23;;
33672;SDS011;20011;51.510;9.942;2022-12-29T08:37:17;1.52;;;0.90;;
33672;SDS011;20011;51.510;9.942;2022-12-29T08:39:45;2.08;;;1.00;;
33672;SDS011;20011;51.510;9.942;2022-12-29T08:42:12;2.58;;;1.08;;
33672;SDS011;20011;51.510;9.942;2022-12-29T08:44:39;3.00;;;1.35;;
33672;SDS011;20011;51.510;9.942;2022-12-29T08:47:06;2.97;;;1.00;;
33672;SDS011;20011;51.510;9.942;2022-12-29T08:49:34;2.40;;;1.20;;
33672;SDS011;20011;51.510;9.942;2022-12-29T08:52:01;5.88;;;1.10;;
33672;SDS011;20011;51.510;9.942;2022-12-29T08:54:28;2.15;;;1.42;;
33672;SDS011;20011;51.510;9.942;2022-12-29T08:56:56;1.58;;;0.95;;
33672;SDS011;20011;51.510;9.942;2022-12-29T08:59:32;1.10;;;1.00;;
33672;SDS011;20011;51.510;9.942;2022-12-29T09:01:59;4.43;;;1.02;;
33672;SDS011;20011;51.510;9.942;2022-12-29T09:04:28;2.85;;;1.10;;
33672;SDS011;20011;51.510;9.942;2022-12-29T09:06:55;3.03;;;1.05;;
33672;SDS011;20011;51.510;9.942;2022-12-29T09:09:23;8.55;;;1.77;;
33672;SDS011;20011;51.510;9.942;2022-12-29T09:11:50;4.20;;;1.15;;
33672;SDS011;20011;51.510;9.942;2022-12-29T09:14:17;7.47;;;1.15;;
33672;SDS011;20011;51.510;9.942;2022-12-29T09:16:45;3.00;;;0.93;;
33672;SDS011;20011;51.510;9.942;2022-12-29T09:19:31;3.05;;;0.70;;
33672;SDS011;20011;51.510;9.942;2022-12-29T09:21:58;1.95;;;0.85;;
33672;SDS011;20011;51.510;9.942;2022-12-29T09:24:29;3.15;;;0.82;;
33672;SDS011;20011;51.510;9.942;2022-12-29T09:29:26;1.05;;;0.43;;
33672;SDS011;20011;51.510;9.942;2022-12-29T09:31:53;1.65;;;1.25;;
33672;SDS011;20011;51.510;9.942;2022-12-29T09:34:21;6.03;;;0.73;;
33672;SDS011;20011;51.510;9.942;2022-12-29T09:36:49;0.40;;;0.40;;
33672;SDS011;20011;51.510;9.942;2022-12-29T09:39:16;2.00;;;0.68;;
33672;SDS011;20011;51.510;9.942;2022-12-29T09:46:56;0.63;;;0.50;;
33672;SDS011;20011;51.510;9.942;2022-12-29T09:49:28;1.25;;;0.45;;
33672;SDS011;20011;51.510;9.942;2022-12-29T09:52:01;1.90;;;0.50;;
33672;SDS011;20011;51.510;9.942;2022-12-29T09:54:41;0.30;;;0.30;;
33672;SDS011;20011;51.510;9.942;2022-12-29T09:57:29;1.20;;;0.40;;
33672;SDS011;20011;51.510;9.942;2022-12-29T10:00:21;0.38;;;0.30;;
33672;SDS011;20011;51.510;9.942;2022-12-29T10:03:40;0.75;;;0.50;;
33672;SDS011;20011;51.510;9.942;2022-12-29T10:08:26;0.43;;;0.43;;
33672;SDS011;20011;51.510;9.942;2022-12-29T10:11:03;1.20;;;0.77;;
33672;SDS011;20011;51.510;9.942;2022-12-29T10:16:54;1.70;;;0.60;;
33672;SDS011;20011;51.510;9.942;2022-12-29T10:24:49;1.45;;;1.20;;
33672;SDS011;20011;51.510;9.942;2022-12-29T10:27:19;1.35;;;0.77;;
33672;SDS011;20011;51.510;9.942;2022-12-29T10:29:55;4.30;;;0.85;;
33672;SDS011;20011;51.510;9.942;2022-12-29T10:32:32;0.73;;;0.65;;
33672;SDS011;20011;51.510;9.942;2022-12-29T10:35:16;1.27;;;0.95;;
33672;SDS011;20011;51.510;9.942;2022-12-29T10:37:49;3.00;;;0.60;;
33672;SDS011;20011;51.510;9.942;2022-12-29T10:40:41;0.90;;;0.60;;
33672;SDS011;20011;51.510;9.942;2022-12-29T10:43:28;0.85;;;0.50;;
33672;SDS011;20011;51.510;9.942;2022-12-29T10:46:04;1.45;;;0.90;;
33672;SDS011;20011;51.510;9.942;2022-12-29T10:48:36;1.17;;;0.60;;
33672;SDS011;20011;51.510;9.942;2022-12-29T10:51:05;7.90;;;0.90;;
33672;SDS011;20011;51.510;9.942;2022-12-29T10:53:55;4.85;;;0.90;;
33672;SDS011;20011;51.510;9.942;2022-12-29T10:56:36;0.98;;;0.70;;
33672;SDS011;20011;51.510;9.942;2022-12-29T10:59:25;1.75;;;0.73;;
33672;SDS011;20011;51.510;9.942;2022-12-29T11:08:07;2.28;;;1.08;;
33672;SDS011;20011;51.510;9.942;2022-12-29T11:10:42;1.65;;;0.70;;
33672;SDS011;20011;51.510;9.942;2022-12-29T11:13:17;3.25;;;0.90;;
33672;SDS011;20011;51.510;9.942;2022-12-29T11:15:51;1.70;;;0.75;;
33672;SDS011;20011;51.510;9.942;2022-12-29T11:21:05;5.82;;;1.00;;
33672;SDS011;20011;51.510;9.942;2022-12-29T11:23:37;3.05;;;1.08;;
33672;SDS011;20011;51.510;9.942;2022-12-29T11:26:25;1.60;;;0.75;;
33672;SDS011;20011;51.510;9.942;2022-12-29T11:29:04;1.25;;;0.80;;
33672;SDS011;20011;51.510;9.942;2022-12-29T11:31:44;1.50;;;0.50;;
33672;SDS011;20011;51.510;9.942;2022-12-29T11:34:17;4.07;;;1.08;;
33672;SDS011;20011;51.510;9.942;2022-12-29T11:36:46;3.42;;;0.70;;
33672;SDS011;20011;51.510;9.942;2022-12-29T11:39:27;1.25;;;0.73;;
33672;SDS011;20011;51.510;9.942;2022-12-29T11:42:20;3.60;;;0.80;;
33672;SDS011;20011;51.510;9.942;2022-12-29T11:44:55;3.50;;;0.70;;
33672;SDS011;20011;51.510;9.942;2022-12-29T11:47:24;2.15;;;0.70;;
33672;SDS011;20011;51.510;9.942;2022-12-29T11:49:56;1.83;;;0.90;;
33672;SDS011;20011;51.510;9.942;2022-12-29T11:52:29;2.60;;;0.80;;
33672;SDS011;20011;51.510;9.942;2022-12-29T11:55:01;4.22;;;0.98;;
33672;SDS011;20011;51.510;9.942;2022-12-29T12:00:00;5.30;;;1.10;;
33672;SDS011;20011;51.510;9.942;2022-12-29T12:10:47;3.13;;;0.85;;
33672;SDS011;20011;51.510;9.942;2022-12-29T12:13:41;4.90;;;1.13;;
33672;SDS011;20011;51.510;9.942;2022-12-29T12:16:11;1.75;;;0.73;;
33672;SDS011;20011;51.510;9.942;2022-12-29T12:18:51;4.13;;;0.90;;
33672;SDS011;20011;51.510;9.942;2022-12-29T12:21:25;5.18;;;1.02;;
33672;SDS011;20011;51.510;9.942;2022-12-29T12:26:32;0.60;;;0.45;;
33672;SDS011;20011;51.510;9.942;2022-12-29T12:31:56;0.60;;;0.55;;
33672;SDS011;20011;51.510;9.942;2022-12-29T12:34:37;2.38;;;0.82;;
33672;SDS011;20011;51.510;9.942;2022-12-29T12:37:30;2.47;;;0.52;;
33672;SDS011;20011;51.510;9.942;2022-12-29T12:50:43;4.18;;;0.75;;
33672;SDS011;20011;51.510;9.942;2022-12-29T12:56:14;3.30;;;1.48;;
33672;SDS011;20011;51.510;9.942;2022-12-29T12:59:06;2.72;;;0.98;;
33672;SDS011;20011;51.510;9.942;2022-12-29T13:02:21;5.00;;;0.68;;
33672;SDS011;20011;51.510;9.942;2022-12-29T13:04:58;1.30;;;0.90;;
33672;SDS011;20011;51.510;9.942;2022-12-29T13:13:27;1.65;;;0.77;;
33672;SDS011;20011;51.510;9.942;2022-12-29T13:24:11;3.47;;;1.00;;
33672;SDS011;20011;51.510;9.942;2022-12-29T13:27:04;5.22;;;1.02;;
33672;SDS011;20011;51.510;9.942;2022-12-29T13:29:47;2.17;;;0.90;;
33672;SDS011;20011;51.510;9.942;2022-12-29T13:32:42;5.55;;;0.73;;
33672;SDS011;20011;51.510;9.942;2022-12-29T13:35:42;2.50;;;0.60;;
33672;SDS011;20011;51.510;9.942;2022-12-29T13:39:08;3.67;;;0.60;;
33672;SDS011;20011;51.510;9.942;2022-12-29T13:41:33;3.40;;;0.90;;
33672;SDS011;20011;51.510;9.942;2022-12-29T13:44:21;0.70;;;0.63;;
33672;SDS011;20011;51.510;9.942;2022-12-29T13:47:04;2.25;;;0.60;;
33672;SDS011;20011;51.510;9.942;2022-12-29T13:49:47;4.03;;;0.90;;
33672;SDS011;20011;51.510;9.942;2022-12-29T13:57:41;3.63;;;0.75;;
33672;SDS011;20011;51.510;9.942;2022-12-29T14:00:14;8.75;;;0.88;;
33672;SDS011;20011;51.510;9.942;2022-12-29T14:02:50;1.88;;;0.70;;
33672;SDS011;20011;51.510;9.942;2022-12-29T14:05:31;1.10;;;0.60;;
33672;SDS011;20011;51.510;9.942;2022-12-29T14:08:00;4.78;;;0.90;;
33672;SDS011;20011;51.510;9.942;2022-12-29T14:15:31;1.27;;;0.65;;
33672;SDS011;20011;51.510;9.942;2022-12-29T14:18:13;7.32;;;1.17;;
33672;SDS011;20011;51.510;9.942;2022-12-29T14:21:08;1.40;;;0.80;;
33672;SDS011;20011;51.510;9.942;2022-12-29T14:28:32;4.75;;;0.77;;
33672;SDS011;20011;51.510;9.942;2022-12-29T14:36:41;2.40;;;0.80;;
33672;SDS011;20011;51.510;9.942;2022-12-29T14:44:52;4.70;;;1.30;;
33672;SDS011;20011;51.510;9.942;2022-12-29T14:49:47;1.27;;;0.90;;
33672;SDS011;20011;51.510;9.942;2022-12-29T14:52:21;2.88;;;1.20;;
33672;SDS011;20011;51.510;9.942;2022-12-29T14:54:52;1.67;;;1.00;;
33672;SDS011;20011;51.510;9.942;2022-12-29T14:57:52;2.40;;;0.95;;
33672;SDS011;20011;51.510;9.942;2022-12-29T15:00:38;2.30;;;0.82;;
33672;SDS011;20011;51.510;9.942;2022-12-29T15:03:07;5.70;;;1.08;;
33672;SDS011;20011;51.510;9.942;2022-12-29T15:05:44;3.35;;;0.90;;
33672;SDS011;20011;51.510;9.942;2022-12-29T15:08:19;4.68;;;1.13;;
33672;SDS011;20011;51.510;9.942;2022-12-29T15:10:53;3.83;;;1.15;;
33672;SDS011;20011;51.510;9.942;2022-12-29T15:13:31;2.00;;;0.90;;
33672;SDS011;20011;51.510;9.942;2022-12-29T15:16:00;3.88;;;0.88;;
33672;SDS011;20011;51.510;9.942;2022-12-29T15:18:29;4.28;;;0.90;;
33672;SDS011;20011;51.510;9.942;2022-12-29T15:20:58;2.97;;;0.90;;
33672;SDS011;20011;51.510;9.942;2022-12-29T15:23:31;2.60;;;0.98;;
33672;SDS011;20011;51.510;9.942;2022-12-29T15:26:06;3.17;;;0.80;;
33672;SDS011;20011;51.510;9.942;2022-12-29T15:28:38;4.43;;;0.93;;
33672;SDS011;20011;51.510;9.942;2022-12-29T15:31:14;1.67;;;0.73;;
33672;SDS011;20011;51.510;9.942;2022-12-29T15:33:42;5.30;;;1.58;;
33672;SDS011;20011;51.510;9.942;2022-12-29T15:38:47;5.30;;;1.30;;
33672;SDS011;20011;51.510;9.942;2022-12-29T15:41:25;6.70;;;1.00;;
33672;SDS011;20011;51.510;9.942;2022-12-29T15:46:26;6.63;;;1.35;;
33672;SDS011;20011;51.510;9.942;2022-12-29T15:51:26;3.75;;;1.00;;
33672;SDS011;20011;51.510;9.942;2022-12-29T15:53:57;6.47;;;1.00;;
33672;SDS011;20011;51.510;9.942;2022-12-29T15:56:24;4.65;;;1.67;;
33672;SDS011;20011;51.510;9.942;2022-12-29T15:58:55;5.35;;;1.08;;
33672;SDS011;20011;51.510;9.942;2022-12-29T16:01:35;7.13;;;1.08;;
33672;SDS011;20011;51.510;9.942;2022-12-29T16:04:04;9.40;;;1.55;;
33672;SDS011;20011;51.510;9.942;2022-12-29T16:06:37;8.40;;;0.93;;
33672;SDS011;20011;51.510;9.942;2022-12-29T16:09:06;3.92;;;1.25;;
33672;SDS011;20011;51.510;9.942;2022-12-29T16:11:42;2.45;;;0.93;;
33672;SDS011;20011;51.510;9.942;2022-12-29T16:14:18;3.85;;;1.17;;
33672;SDS011;20011;51.510;9.942;2022-12-29T16:16:48;5.72;;;1.60;;
33672;SDS011;20011;51.510;9.942;2022-12-29T16:19:24;4.43;;;1.38;;
33672;SDS011;20011;51.510;9.942;2022-12-29T16:21:55;5.63;;;1.45;;
33672;SDS011;20011;51.510;9.942;2022-12-29T16:24:25;6.30;;;1.10;;
33672;SDS011;20011;51.510;9.942;2022-12-29T16:27:00;7.60;;;1.38;;
33672;SDS011;20011;51.510;9.942;2022-12-29T16:29:33;6.35;;;1.65;;
33672;SDS011;20011;51.510;9.942;2022-12-29T16:32:01;2.38;;;0.70;;
33672;SDS011;20011;51.510;9.942;2022-12-29T16:37:04;5.15;;;1.38;;
33672;SDS011;20011;51.510;9.942;2022-12-29T16:39:50;1.88;;;0.90;;
33672;SDS011;20011;51.510;9.942;2022-12-29T16:42:34;1.95;;;1.00;;
33672;SDS011;20011;51.510;9.942;2022-12-29T16:48:25;2.70;;;1.00;;
33672;SDS011;20011;51.510;9.942;2022-12-29T16:53:28;2.63;;;1.05;;
33672;SDS011;20011;51.510;9.942;2022-12-29T16:56:00;7.50;;;1.65;;
33672;SDS011;20011;51.510;9.942;2022-12-29T16:58:32;3.30;;;1.55;;
33672;SDS011;20011;51.510;9.942;2022-12-29T17:01:02;6.20;;;1.23;;
33672;SDS011;20011;51.510;9.942;2022-12-29T17:03:33;8.85;;;1.00;;
33672;SDS011;20011;51.510;9.942;2022-12-29T17:06:05;4.22;;;1.17;;
33672;SDS011;20011;51.510;9.942;2022-12-29T17:08:39;3.28;;;1.05;;
33672;SDS011;20011;51.510;9.942;2022-12-29T17:11:14;5.70;;;1.25;;
33672;SDS011;20011;51.510;9.942;2022-12-29T17:14:12;8.55;;;1.30;;
33672;SDS011;20011;51.510;9.942;2022-12-29T17:16:47;4.68;;;1.30;;
33672;SDS011;20011;51.510;9.942;2022-12-29T17:19:19;3.78;;;1.30;;
33672;SDS011;20011;51.510;9.942;2022-12-29T17:21:49;6.72;;;1.58;;
33672;SDS011;20011;51.510;9.942;2022-12-29T17:24:17;4.50;;;1.05;;
33672;SDS011;20011;51.510;9.942;2022-12-29T17:26:45;3.60;;;1.00;;
33672;SDS011;20011;51.510;9.942;2022-12-29T17:29:21;6.15;;;1.30;;
33672;SDS011;20011;51.510;9.942;2022-12-29T17:32:03;2.97;;;1.35;;
33672;SDS011;20011;51.510;9.942;2022-12-29T17:34:32;2.63;;;1.13;;
33672;SDS011;20011;51.510;9.942;2022-12-29T17:36:59;3.80;;;1.05;;
33672;SDS011;20011;51.510;9.942;2022-12-29T17:39:27;3.55;;;1.35;;
33672;SDS011;20011;51.510;9.942;2022-12-29T17:41:54;4.18;;;1.20;;
33672;SDS011;20011;51.510;9.942;2022-12-29T17:44:27;2.67;;;1.17;;
33672;SDS011;20011;51.510;9.942;2022-12-29T17:46:54;4.03;;;0.60;;
33672;SDS011;20011;51.510;9.942;2022-12-29T17:49:21;2.83;;;1.00;;
33672;SDS011;20011;51.510;9.942;2022-12-29T17:51:48;7.13;;;1.10;;
33672;SDS011;20011;51.510;9.942;2022-12-29T17:54:20;5.05;;;0.93;;
33672;SDS011;20011;51.510;9.942;2022-12-29T17:56:50;4.63;;;1.05;;
33672;SDS011;20011;51.510;9.942;2022-12-29T17:59:18;2.85;;;1.08;;
33672;SDS011;20011;51.510;9.942;2022-12-29T18:01:46;5.75;;;0.65;;
33672;SDS011;20011;51.510;9.942;2022-12-29T18:04:16;9.05;;;1.50;;